sensor_id;sensor_type;location;lat;lon;timestamp;P1;durP1;ratioP1;P2;durP2;ratioP2
75342;SDS011;63936;51.006;13.764;2024-01-06T00:00:02;23;;;12;;
75342;SDS011;63936;51.006;13.764;2024-01-06T00:02:02;26;;;12;;
75342;SDS011;63936;51.006;13.764;2024-01-06T00:04:02;30;;;16;;
75342;SDS011;63936;51.006;13.764;2024-01-06T00:06:01;23;;;11;;
75342;SDS011;63936;51.006;13.764;2024-01-06T00:08:02;26;;;12;;
75342;SDS011;63936;51.006;13.764;2024-01-06T00:10:01;26;;;10;;
75342;SDS011;63936;51.006;13.764;2024-01-06T00:12:01;23;;;11;;
75342;SDS011;63936;51.006;13.764;2024-01-06T00:14:01;22;;;11;;
75342;SDS011;63936;51.006;13.764;2024-01-06T00:16:01;22;;;10;;
75342;SDS011;63936;51.006;13.764;2024-01-06T00:18:01;22;;;11;;
75342;SDS011;63936;51.006;13.764;2024-01-06T00:20:02;23;;;11;;
75342;SDS011;63936;51.006;13.764;2024-01-06T00:22:01;23;;;11;;
75342;SDS011;63936;51.006;13.764;2024-01-06T00:24:01;34;;;16;;
75342;SDS011;63936;51.006;13.764;2024-01-06T00:26:01;26;;;13;;
75342;SDS011;63936;51.006;13.764;2024-01-06T00:28:01;31;;;15;;
75342;SDS011;63936;51.006;13.764;2024-01-06T00:30:02;21;;;9;;
75342;SDS011;63936;51.006;13.764;2024-01-06T00:32:02;26;;;12;;
75342;SDS011;63936;51.006;13.764;2024-01-06T00:34:01;34;;;16;;
75342;SDS011;63936;51.006;13.764;2024-01-06T00:36:02;39;;;17;;
75342;SDS011;63936;51.006;13.764;2024-01-06T00:38:02;31;;;13;;
75342;SDS011;63936;51.006;13.764;2024-01-06T00:40:01;24;;;12;;
75342;SDS011;63936;51.006;13.764;2024-01-06T00:42:01;29;;;14;;
75342;SDS011;63936;51.006;13.764;2024-01-06T00:44:01;19;;;9;;
75342;SDS011;63936;51.006;13.764;2024-01-06T00:46:01;19;;;10;;
75342;SDS011;63936;51.006;13.764;2024-01-06T00:48:01;16;;;8;;
75342;SDS011;63936;51.006;13.764;2024-01-06T00:50:02;17;;;9;;
75342;SDS011;63936;51.006;13.764;2024-01-06T00:52:01;17;;;9;;
75342;SDS011;63936;51.006;13.764;2024-01-06T00:54:01;23;;;11;;
75342;SDS011;63936;51.006;13.764;2024-01-06T00:56:01;24;;;11;;
75342;SDS011;63936;51.006;13.764;2024-01-06T00:58:01;21;;;9;;
75342;SDS011;63936;51.006;13.764;2024-01-06T01:00:02;21;;;9;;
75342;SDS011;63936;51.006;13.764;2024-01-06T01:02:03;42;;;18;;
75342;SDS011;63936;51.006;13.764;2024-01-06T01:04:02;29;;;14;;
75342;SDS011;63936;51.006;13.764;2024-01-06T01:06:02;25;;;12;;
75342;SDS011;63936;51.006;13.764;2024-01-06T01:08:03;25;;;12;;
75342;SDS011;63936;51.006;13.764;2024-01-06T01:10:05;38;;;17;;
75342;SDS011;63936;51.006;13.764;2024-01-06T01:12:02;29;;;14;;
75342;SDS011;63936;51.006;13.764;2024-01-06T01:14:02;19;;;10;;
75342;SDS011;63936;51.006;13.764;2024-01-06T01:16:03;19;;;10;;
75342;SDS011;63936;51.006;13.764;2024-01-06T01:18:03;23;;;11;;
75342;SDS011;63936;51.006;13.764;2024-01-06T01:20:05;23;;;11;;
75342;SDS011;63936;51.006;13.764;2024-01-06T01:22:02;19;;;9;;
75342;SDS011;63936;51.006;13.764;2024-01-06T01:24:04;28;;;11;;
75342;SDS011;63936;51.006;13.764;2024-01-06T01:26:05;20;;;10;;
75342;SDS011;63936;51.006;13.764;2024-01-06T01:28:02;21;;;11;;
75342;SDS011;63936;51.006;13.764;2024-01-06T01:30:07;16;;;9;;
75342;SDS011;63936;51.006;13.764;2024-01-06T01:32:03;16;;;9;;
75342;SDS011;63936;51.006;13.764;2024-01-06T01:34:03;20;;;9;;
75342;SDS011;63936;51.006;13.764;2024-01-06T01:36:03;35;;;16;;
75342;SDS011;63936;51.006;13.764;2024-01-06T01:38:03;40;;;20;;
75342;SDS011;63936;51.006;13.764;2024-01-06T01:40:06;26;;;13;;
75342;SDS011;63936;51.006;13.764;2024-01-06T01:42:06;25;;;12;;
75342;SDS011;63936;51.006;13.764;2024-01-06T01:44:02;20;;;10;;
75342;SDS011;63936;51.006;13.764;2024-01-06T01:46:02;22;;;11;;
75342;SDS011;63936;51.006;13.764;2024-01-06T01:48:02;23;;;9;;
75342;SDS011;63936;51.006;13.764;2024-01-06T01:50:03;23;;;9;;
75342;SDS011;63936;51.006;13.764;2024-01-06T01:52:03;43;;;19;;
75342;SDS011;63936;51.006;13.764;2024-01-06T01:54:03;30;;;14;;
75342;SDS011;63936;51.006;13.764;2024-01-06T01:56:01;27;;;12;;
75342;SDS011;63936;51.006;13.764;2024-01-06T01:58:05;23;;;11;;
75342;SDS011;63936;51.006;13.764;2024-01-06T02:00:04;38;;;16;;
75342;SDS011;63936;51.006;13.764;2024-01-06T02:02:04;43;;;17;;
75342;SDS011;63936;51.006;13.764;2024-01-06T02:04:03;28;;;13;;
75342;SDS011;63936;51.006;13.764;2024-01-06T02:06:05;23;;;12;;
75342;SDS011;63936;51.006;13.764;2024-01-06T02:08:01;20;;;8;;
75342;SDS011;63936;51.006;13.764;2024-01-06T02:10:04;20;;;10;;
75342;SDS011;63936;51.006;13.764;2024-01-06T02:12:03;35;;;15;;
75342;SDS011;63936;51.006;13.764;2024-01-06T02:14:03;58;;;32;;
75342;SDS011;63936;51.006;13.764;2024-01-06T02:16:02;22;;;10;;
75342;SDS011;63936;51.006;13.764;2024-01-06T02:18:03;21;;;9;;
75342;SDS011;63936;51.006;13.764;2024-01-06T02:20:03;21;;;9;;
75342;SDS011;63936;51.006;13.764;2024-01-06T02:22:01;23;;;10;;
75342;SDS011;63936;51.006;13.764;2024-01-06T02:24:01;23;;;10;;
75342;SDS011;63936;51.006;13.764;2024-01-06T02:26:03;22;;;10;;
75342;SDS011;63936;51.006;13.764;2024-01-06T02:28:04;41;;;16;;
75342;SDS011;63936;51.006;13.764;2024-01-06T02:30:04;28;;;13;;
75342;SDS011;63936;51.006;13.764;2024-01-06T02:32:02;23;;;11;;
75342;SDS011;63936;51.006;13.764;2024-01-06T02:34:03;19;;;9;;
75342;SDS011;63936;51.006;13.764;2024-01-06T02:36:04;23;;;9;;
75342;SDS011;63936;51.006;13.764;2024-01-06T02:38:02;23;;;9;;
75342;SDS011;63936;51.006;13.764;2024-01-06T02:40:03;36;;;14;;
75342;SDS011;63936;51.006;13.764;2024-01-06T02:42:02;27;;;11;;
75342;SDS011;63936;51.006;13.764;2024-01-06T02:44:02;24;;;10;;
75342;SDS011;63936;51.006;13.764;2024-01-06T02:46:06;18;;;8;;
75342;SDS011;63936;51.006;13.764;2024-01-06T02:48:03;31;;;13;;
75342;SDS011;63936;51.006;13.764;2024-01-06T02:50:02;33;;;14;;
75342;SDS011;63936;51.006;13.764;2024-01-06T02:52:01;30;;;11;;
75342;SDS011;63936;51.006;13.764;2024-01-06T02:54:01;20;;;8;;
75342;SDS011;63936;51.006;13.764;2024-01-06T02:56:01;16;;;7;;
75342;SDS011;63936;51.006;13.764;2024-01-06T02:58:01;19;;;8;;
75342;SDS011;63936;51.006;13.764;2024-01-06T03:00:02;19;;;8;;
75342;SDS011;63936;51.006;13.764;2024-01-06T03:02:01;27;;;12;;
75342;SDS011;63936;51.006;13.764;2024-01-06T03:04:01;27;;;12;;
75342;SDS011;63936;51.006;13.764;2024-01-06T03:06:01;32;;;13;;
75342;SDS011;63936;51.006;13.764;2024-01-06T03:08:01;24;;;11;;
75342;SDS011;63936;51.006;13.764;2024-01-06T03:10:02;20;;;9;;
75342;SDS011;63936;51.006;13.764;2024-01-06T03:12:01;17;;;7;;
75342;SDS011;63936;51.006;13.764;2024-01-06T03:14:01;17;;;7;;
75342;SDS011;63936;51.006;13.764;2024-01-06T03:16:03;32;;;12;;
75342;SDS011;63936;51.006;13.764;2024-01-06T03:18:01;22;;;9;;
75342;SDS011;63936;51.006;13.764;2024-01-06T03:20:02;19;;;8;;
75342;SDS011;63936;51.006;13.764;2024-01-06T03:22:02;17;;;8;;
75342;SDS011;63936;51.006;13.764;2024-01-06T03:24:02;19;;;9;;
75342;SDS011;63936;51.006;13.764;2024-01-06T03:26:04;15;;;7;;
75342;SDS011;63936;51.006;13.764;2024-01-06T03:28:01;19;;;8;;
75342;SDS011;63936;51.006;13.764;2024-01-06T03:30:01;20;;;8;;
75342;SDS011;63936;51.006;13.764;2024-01-06T03:32:01;19;;;8;;
75342;SDS011;63936;51.006;13.764;2024-01-06T03:34:01;18;;;8;;
75342;SDS011;63936;51.006;13.764;2024-01-06T03:36:03;17;;;8;;
75342;SDS011;63936;51.006;13.764;2024-01-06T03:38:02;19;;;8;;
75342;SDS011;63936;51.006;13.764;2024-01-06T03:40:01;19;;;8;;
75342;SDS011;63936;51.006;13.764;2024-01-06T03:42:03;33;;;12;;
75342;SDS011;63936;51.006;13.764;2024-01-06T03:44:02;34;;;13;;
75342;SDS011;63936;51.006;13.764;2024-01-06T03:46:02;21;;;9;;
75342;SDS011;63936;51.006;13.764;2024-01-06T03:48:02;21;;;9;;
75342;SDS011;63936;51.006;13.764;2024-01-06T03:50:02;30;;;12;;
75342;SDS011;63936;51.006;13.764;2024-01-06T03:52:01;21;;;9;;
75342;SDS011;63936;51.006;13.764;2024-01-06T03:54:01;21;;;9;;
75342;SDS011;63936;51.006;13.764;2024-01-06T03:56:02;29;;;12;;
75342;SDS011;63936;51.006;13.764;2024-01-06T03:58:01;22;;;8;;
75342;SDS011;63936;51.006;13.764;2024-01-06T04:00:01;22;;;8;;
75342;SDS011;63936;51.006;13.764;2024-01-06T04:02:04;32;;;13;;
75342;SDS011;63936;51.006;13.764;2024-01-06T04:04:02;21;;;9;;
75342;SDS011;63936;51.006;13.764;2024-01-06T04:06:03;16;;;7;;
75342;SDS011;63936;51.006;13.764;2024-01-06T04:08:02;20;;;9;;
75342;SDS011;63936;51.006;13.764;2024-01-06T04:10:04;15;;;7;;
75342;SDS011;63936;51.006;13.764;2024-01-06T04:12:01;19;;;6;;
75342;SDS011;63936;51.006;13.764;2024-01-06T04:14:01;16;;;7;;
75342;SDS011;63936;51.006;13.764;2024-01-06T04:16:01;11;;;5;;
75342;SDS011;63936;51.006;13.764;2024-01-06T04:18:01;15;;;7;;
75342;SDS011;63936;51.006;13.764;2024-01-06T04:20:01;15;;;7;;
75342;SDS011;63936;51.006;13.764;2024-01-06T04:22:01;24;;;10;;
75342;SDS011;63936;51.006;13.764;2024-01-06T04:24:01;26;;;12;;
75342;SDS011;63936;51.006;13.764;2024-01-06T04:26:01;22;;;9;;
75342;SDS011;63936;51.006;13.764;2024-01-06T04:28:01;26;;;11;;
75342;SDS011;63936;51.006;13.764;2024-01-06T04:30:02;21;;;10;;
75342;SDS011;63936;51.006;13.764;2024-01-06T04:32:01;20;;;8;;
75342;SDS011;63936;51.006;13.764;2024-01-06T04:34:01;15;;;6;;
75342;SDS011;63936;51.006;13.764;2024-01-06T04:36:01;26;;;11;;
75342;SDS011;63936;51.006;13.764;2024-01-06T04:38:01;29;;;12;;
75342;SDS011;63936;51.006;13.764;2024-01-06T04:40:02;23;;;10;;
75342;SDS011;63936;51.006;13.764;2024-01-06T04:42:01;17;;;8;;
75342;SDS011;63936;51.006;13.764;2024-01-06T04:44:01;17;;;8;;
75342;SDS011;63936;51.006;13.764;2024-01-06T04:46:01;28;;;11;;
75342;SDS011;63936;51.006;13.764;2024-01-06T04:48:01;24;;;10;;
75342;SDS011;63936;51.006;13.764;2024-01-06T04:50:01;24;;;10;;
75342;SDS011;63936;51.006;13.764;2024-01-06T04:52:01;27;;;11;;
75342;SDS011;63936;51.006;13.764;2024-01-06T04:54:01;18;;;9;;
75342;SDS011;63936;51.006;13.764;2024-01-06T04:56:01;13;;;6;;
75342;SDS011;63936;51.006;13.764;2024-01-06T04:58:01;13;;;5;;
75342;SDS011;63936;51.006;13.764;2024-01-06T05:00:02;16;;;6;;
75342;SDS011;63936;51.006;13.764;2024-01-06T05:02:01;16;;;6;;
75342;SDS011;63936;51.006;13.764;2024-01-06T05:04:01;16;;;6;;
75342;SDS011;63936;51.006;13.764;2024-01-06T05:06:01;23;;;8;;
75342;SDS011;63936;51.006;13.764;2024-01-06T05:08:01;23;;;8;;
75342;SDS011;63936;51.006;13.764;2024-01-06T05:10:02;20;;;8;;
75342;SDS011;63936;51.006;13.764;2024-01-06T05:12:01;14;;;6;;
75342;SDS011;63936;51.006;13.764;2024-01-06T05:14:01;14;;;6;;
75342;SDS011;63936;51.006;13.764;2024-01-06T05:16:01;18;;;8;;
75342;SDS011;63936;51.006;13.764;2024-01-06T05:18:01;13;;;6;;
75342;SDS011;63936;51.006;13.764;2024-01-06T05:20:01;18;;;7;;
75342;SDS011;63936;51.006;13.764;2024-01-06T05:22:01;29;;;16;;
75342;SDS011;63936;51.006;13.764;2024-01-06T05:24:01;12;;;5;;
75342;SDS011;63936;51.006;13.764;2024-01-06T05:26:01;16;;;6;;
75342;SDS011;63936;51.006;13.764;2024-01-06T05:28:01;15;;;8;;
75342;SDS011;63936;51.006;13.764;2024-01-06T05:30:01;14;;;6;;
75342;SDS011;63936;51.006;13.764;2024-01-06T05:32:01;13;;;5;;
75342;SDS011;63936;51.006;13.764;2024-01-06T05:34:01;14;;;5;;
75342;SDS011;63936;51.006;13.764;2024-01-06T05:36:01;10;;;5;;
75342;SDS011;63936;51.006;13.764;2024-01-06T05:38:01;13;;;6;;
75342;SDS011;63936;51.006;13.764;2024-01-06T05:40:03;13;;;6;;
75342;SDS011;63936;51.006;13.764;2024-01-06T05:42:02;23;;;9;;
75342;SDS011;63936;51.006;13.764;2024-01-06T05:44:01;26;;;10;;
75342;SDS011;63936;51.006;13.764;2024-01-06T05:46:01;18;;;7;;
75342;SDS011;63936;51.006;13.764;2024-01-06T05:48:01;18;;;7;;
75342;SDS011;63936;51.006;13.764;2024-01-06T05:50:01;21;;;8;;
75342;SDS011;63936;51.006;13.764;2024-01-06T05:52:01;20;;;8;;
75342;SDS011;63936;51.006;13.764;2024-01-06T05:54:01;16;;;5;;
75342;SDS011;63936;51.006;13.764;2024-01-06T05:56:01;16;;;5;;
75342;SDS011;63936;51.006;13.764;2024-01-06T05:58:01;23;;;9;;
75342;SDS011;63936;51.006;13.764;2024-01-06T06:00:01;23;;;9;;
75342;SDS011;63936;51.006;13.764;2024-01-06T06:02:01;23;;;9;;
75342;SDS011;63936;51.006;13.764;2024-01-06T06:04:01;21;;;8;;
75342;SDS011;63936;51.006;13.764;2024-01-06T06:06:01;13;;;6;;
75342;SDS011;63936;51.006;13.764;2024-01-06T06:08:01;12;;;6;;
75342;SDS011;63936;51.006;13.764;2024-01-06T06:10:02;12;;;5;;
75342;SDS011;63936;51.006;13.764;2024-01-06T06:12:02;13;;;5;;
75342;SDS011;63936;51.006;13.764;2024-01-06T06:14:02;14;;;5;;
75342;SDS011;63936;51.006;13.764;2024-01-06T06:16:02;14;;;5;;
75342;SDS011;63936;51.006;13.764;2024-01-06T06:18:02;25;;;10;;
75342;SDS011;63936;51.006;13.764;2024-01-06T06:20:02;24;;;11;;
75342;SDS011;63936;51.006;13.764;2024-01-06T06:22:01;14;;;7;;
75342;SDS011;63936;51.006;13.764;2024-01-06T06:24:01;14;;;7;;
75342;SDS011;63936;51.006;13.764;2024-01-06T06:26:04;12;;;6;;
75342;SDS011;63936;51.006;13.764;2024-01-06T06:28:01;12;;;5;;
75342;SDS011;63936;51.006;13.764;2024-01-06T06:30:01;9;;;4;;
75342;SDS011;63936;51.006;13.764;2024-01-06T06:32:03;11;;;4;;
75342;SDS011;63936;51.006;13.764;2024-01-06T06:34:01;16;;;7;;
75342;SDS011;63936;51.006;13.764;2024-01-06T06:36:02;17;;;8;;
75342;SDS011;63936;51.006;13.764;2024-01-06T06:38:03;14;;;7;;
75342;SDS011;63936;51.006;13.764;2024-01-06T06:40:06;9;;;5;;
75342;SDS011;63936;51.006;13.764;2024-01-06T06:42:01;11;;;3;;
75342;SDS011;63936;51.006;13.764;2024-01-06T06:44:02;9;;;4;;
75342;SDS011;63936;51.006;13.764;2024-01-06T06:46:01;9;;;4;;
75342;SDS011;63936;51.006;13.764;2024-01-06T06:48:02;15;;;7;;
75342;SDS011;63936;51.006;13.764;2024-01-06T06:50:03;13;;;7;;
75342;SDS011;63936;51.006;13.764;2024-01-06T06:52:02;13;;;7;;
75342;SDS011;63936;51.006;13.764;2024-01-06T06:54:02;10;;;5;;
75342;SDS011;63936;51.006;13.764;2024-01-06T06:56:02;10;;;5;;
75342;SDS011;63936;51.006;13.764;2024-01-06T06:58:02;12;;;5;;
75342;SDS011;63936;51.006;13.764;2024-01-06T07:00:02;12;;;5;;
75342;SDS011;63936;51.006;13.764;2024-01-06T07:02:02;9;;;4;;
75342;SDS011;63936;51.006;13.764;2024-01-06T07:04:02;9;;;4;;
75342;SDS011;63936;51.006;13.764;2024-01-06T07:06:03;9;;;4;;
75342;SDS011;63936;51.006;13.764;2024-01-06T07:08:02;17;;;8;;
75342;SDS011;63936;51.006;13.764;2024-01-06T07:10:04;17;;;8;;
75342;SDS011;63936;51.006;13.764;2024-01-06T07:12:01;13;;;6;;
75342;SDS011;63936;51.006;13.764;2024-01-06T07:14:02;12;;;6;;
75342;SDS011;63936;51.006;13.764;2024-01-06T07:16:02;12;;;6;;
75342;SDS011;63936;51.006;13.764;2024-01-06T07:18:01;16;;;7;;
75342;SDS011;63936;51.006;13.764;2024-01-06T07:20:03;12;;;5;;
75342;SDS011;63936;51.006;13.764;2024-01-06T07:22:02;9;;;4;;
75342;SDS011;63936;51.006;13.764;2024-01-06T07:24:02;10;;;4;;
75342;SDS011;63936;51.006;13.764;2024-01-06T07:26:01;9;;;4;;
75342;SDS011;63936;51.006;13.764;2024-01-06T07:28:02;11;;;4;;
75342;SDS011;63936;51.006;13.764;2024-01-06T07:30:03;8;;;4;;
75342;SDS011;63936;51.006;13.764;2024-01-06T07:32:02;10;;;5;;
75342;SDS011;63936;51.006;13.764;2024-01-06T07:34:02;13;;;5;;
75342;SDS011;63936;51.006;13.764;2024-01-06T07:36:02;10;;;4;;
75342;SDS011;63936;51.006;13.764;2024-01-06T07:38:02;10;;;4;;
75342;SDS011;63936;51.006;13.764;2024-01-06T07:40:03;10;;;4;;
75342;SDS011;63936;51.006;13.764;2024-01-06T07:42:02;15;;;8;;
75342;SDS011;63936;51.006;13.764;2024-01-06T07:44:02;18;;;8;;
75342;SDS011;63936;51.006;13.764;2024-01-06T07:46:02;11;;;6;;
75342;SDS011;63936;51.006;13.764;2024-01-06T07:48:02;10;;;5;;
75342;SDS011;63936;51.006;13.764;2024-01-06T07:50:03;11;;;6;;
75342;SDS011;63936;51.006;13.764;2024-01-06T07:52:01;13;;;6;;
75342;SDS011;63936;51.006;13.764;2024-01-06T07:54:01;14;;;5;;
75342;SDS011;63936;51.006;13.764;2024-01-06T07:56:02;10;;;5;;
75342;SDS011;63936;51.006;13.764;2024-01-06T07:58:02;10;;;5;;
75342;SDS011;63936;51.006;13.764;2024-01-06T08:00:02;15;;;5;;
75342;SDS011;63936;51.006;13.764;2024-01-06T08:02:01;9;;;5;;
75342;SDS011;63936;51.006;13.764;2024-01-06T08:04:02;9;;;4;;
75342;SDS011;63936;51.006;13.764;2024-01-06T08:06:02;11;;;5;;
75342;SDS011;63936;51.006;13.764;2024-01-06T08:08:02;11;;;5;;
75342;SDS011;63936;51.006;13.764;2024-01-06T08:10:03;13;;;6;;
75342;SDS011;63936;51.006;13.764;2024-01-06T08:12:01;12;;;5;;
75342;SDS011;63936;51.006;13.764;2024-01-06T08:14:01;11;;;5;;
75342;SDS011;63936;51.006;13.764;2024-01-06T08:16:01;11;;;4;;
75342;SDS011;63936;51.006;13.764;2024-01-06T08:18:01;9;;;5;;
75342;SDS011;63936;51.006;13.764;2024-01-06T08:20:04;12;;;6;;
75342;SDS011;63936;51.006;13.764;2024-01-06T08:22:01;16;;;9;;
75342;SDS011;63936;51.006;13.764;2024-01-06T08:24:02;11;;;5;;
75342;SDS011;63936;51.006;13.764;2024-01-06T08:26:01;10;;;5;;
75342;SDS011;63936;51.006;13.764;2024-01-06T08:28:01;10;;;5;;
75342;SDS011;63936;51.006;13.764;2024-01-06T08:30:03;27;;;12;;
75342;SDS011;63936;51.006;13.764;2024-01-06T08:32:01;18;;;9;;
75342;SDS011;63936;51.006;13.764;2024-01-06T08:34:01;10;;;5;;
75342;SDS011;63936;51.006;13.764;2024-01-06T08:36:01;19;;;7;;
75342;SDS011;63936;51.006;13.764;2024-01-06T08:38:02;40;;;15;;
75342;SDS011;63936;51.006;13.764;2024-01-06T08:40:02;20;;;9;;
75342;SDS011;63936;51.006;13.764;2024-01-06T08:42:01;16;;;8;;
75342;SDS011;63936;51.006;13.764;2024-01-06T08:44:01;13;;;6;;
75342;SDS011;63936;51.006;13.764;2024-01-06T08:46:01;11;;;4;;
75342;SDS011;63936;51.006;13.764;2024-01-06T08:48:01;8;;;4;;
75342;SDS011;63936;51.006;13.764;2024-01-06T08:50:04;10;;;4;;
75342;SDS011;63936;51.006;13.764;2024-01-06T08:52:02;11;;;5;;
75342;SDS011;63936;51.006;13.764;2024-01-06T08:54:02;13;;;6;;
75342;SDS011;63936;51.006;13.764;2024-01-06T08:56:02;10;;;5;;
75342;SDS011;63936;51.006;13.764;2024-01-06T08:58:02;10;;;5;;
75342;SDS011;63936;51.006;13.764;2024-01-06T09:00:03;17;;;7;;
75342;SDS011;63936;51.006;13.764;2024-01-06T09:02:01;17;;;7;;
75342;SDS011;63936;51.006;13.764;2024-01-06T09:04:01;17;;;8;;
75342;SDS011;63936;51.006;13.764;2024-01-06T09:06:01;17;;;8;;
75342;SDS011;63936;51.006;13.764;2024-01-06T09:08:01;14;;;7;;
75342;SDS011;63936;51.006;13.764;2024-01-06T09:10:03;15;;;7;;
75342;SDS011;63936;51.006;13.764;2024-01-06T09:12:02;12;;;6;;
75342;SDS011;63936;51.006;13.764;2024-01-06T09:14:01;14;;;6;;
75342;SDS011;63936;51.006;13.764;2024-01-06T09:16:02;11;;;6;;
75342;SDS011;63936;51.006;13.764;2024-01-06T09:18:02;11;;;5;;
75342;SDS011;63936;51.006;13.764;2024-01-06T09:20:05;12;;;5;;
75342;SDS011;63936;51.006;13.764;2024-01-06T09:22:01;13;;;6;;
75342;SDS011;63936;51.006;13.764;2024-01-06T09:24:01;11;;;6;;
75342;SDS011;63936;51.006;13.764;2024-01-06T09:26:01;11;;;6;;
75342;SDS011;63936;51.006;13.764;2024-01-06T09:28:01;12;;;5;;
75342;SDS011;63936;51.006;13.764;2024-01-06T09:30:02;12;;;6;;
75342;SDS011;63936;51.006;13.764;2024-01-06T09:32:01;11;;;6;;
75342;SDS011;63936;51.006;13.764;2024-01-06T09:34:01;13;;;7;;
75342;SDS011;63936;51.006;13.764;2024-01-06T09:36:01;27;;;11;;
75342;SDS011;63936;51.006;13.764;2024-01-06T09:38:01;24;;;10;;
75342;SDS011;63936;51.006;13.764;2024-01-06T09:40:03;18;;;7;;
75342;SDS011;63936;51.006;13.764;2024-01-06T09:42:01;15;;;7;;
75342;SDS011;63936;51.006;13.764;2024-01-06T09:44:01;15;;;8;;
75342;SDS011;63936;51.006;13.764;2024-01-06T09:46:06;13;;;7;;
75342;SDS011;63936;51.006;13.764;2024-01-06T09:48:02;14;;;6;;
75342;SDS011;63936;51.006;13.764;2024-01-06T09:50:03;16;;;8;;
75342;SDS011;63936;51.006;13.764;2024-01-06T09:52:01;15;;;8;;
75342;SDS011;63936;51.006;13.764;2024-01-06T09:54:04;14;;;8;;
75342;SDS011;63936;51.006;13.764;2024-01-06T09:56:01;16;;;8;;
75342;SDS011;63936;51.006;13.764;2024-01-06T09:58:01;15;;;8;;
75342;SDS011;63936;51.006;13.764;2024-01-06T10:00:03;13;;;7;;
75342;SDS011;63936;51.006;13.764;2024-01-06T10:02:01;14;;;8;;
75342;SDS011;63936;51.006;13.764;2024-01-06T10:04:01;17;;;8;;
75342;SDS011;63936;51.006;13.764;2024-01-06T10:06:01;18;;;9;;
75342;SDS011;63936;51.006;13.764;2024-01-06T10:08:02;18;;;11;;
75342;SDS011;63936;51.006;13.764;2024-01-06T10:10:02;18;;;11;;
75342;SDS011;63936;51.006;13.764;2024-01-06T10:12:02;17;;;9;;
75342;SDS011;63936;51.006;13.764;2024-01-06T10:14:02;17;;;9;;
75342;SDS011;63936;51.006;13.764;2024-01-06T10:16:01;13;;;7;;
75342;SDS011;63936;51.006;13.764;2024-01-06T10:18:01;13;;;7;;
75342;SDS011;63936;51.006;13.764;2024-01-06T10:20:03;16;;;8;;
75342;SDS011;63936;51.006;13.764;2024-01-06T10:22:01;16;;;8;;
75342;SDS011;63936;51.006;13.764;2024-01-06T10:24:01;15;;;8;;
75342;SDS011;63936;51.006;13.764;2024-01-06T10:26:02;16;;;8;;
75342;SDS011;63936;51.006;13.764;2024-01-06T10:28:01;15;;;8;;
75342;SDS011;63936;51.006;13.764;2024-01-06T10:30:02;15;;;8;;
75342;SDS011;63936;51.006;13.764;2024-01-06T10:32:01;14;;;8;;
75342;SDS011;63936;51.006;13.764;2024-01-06T10:34:01;15;;;8;;
75342;SDS011;63936;51.006;13.764;2024-01-06T10:36:02;16;;;8;;
75342;SDS011;63936;51.006;13.764;2024-01-06T10:38:01;15;;;8;;
75342;SDS011;63936;51.006;13.764;2024-01-06T10:40:10;16;;;9;;
75342;SDS011;63936;51.006;13.764;2024-01-06T10:42:01;16;;;8;;
75342;SDS011;63936;51.006;13.764;2024-01-06T10:44:01;14;;;8;;
75342;SDS011;63936;51.006;13.764;2024-01-06T10:46:02;13;;;8;;
75342;SDS011;63936;51.006;13.764;2024-01-06T10:48:01;13;;;7;;
75342;SDS011;63936;51.006;13.764;2024-01-06T10:50:02;13;;;8;;
75342;SDS011;63936;51.006;13.764;2024-01-06T10:52:02;14;;;8;;
75342;SDS011;63936;51.006;13.764;2024-01-06T10:54:02;14;;;8;;
75342;SDS011;63936;51.006;13.764;2024-01-06T10:56:01;15;;;7;;
75342;SDS011;63936;51.006;13.764;2024-01-06T10:58:01;15;;;7;;
75342;SDS011;63936;51.006;13.764;2024-01-06T11:00:03;15;;;7;;
75342;SDS011;63936;51.006;13.764;2024-01-06T11:02:01;14;;;7;;
75342;SDS011;63936;51.006;13.764;2024-01-06T11:04:02;12;;;6;;
75342;SDS011;63936;51.006;13.764;2024-01-06T11:06:02;12;;;7;;
75342;SDS011;63936;51.006;13.764;2024-01-06T11:08:02;13;;;7;;
75342;SDS011;63936;51.006;13.764;2024-01-06T11:10:04;17;;;9;;
75342;SDS011;63936;51.006;13.764;2024-01-06T11:12:02;14;;;8;;
75342;SDS011;63936;51.006;13.764;2024-01-06T11:14:17;14;;;9;;
75342;SDS011;63936;51.006;13.764;2024-01-06T11:16:01;17;;;8;;
75342;SDS011;63936;51.006;13.764;2024-01-06T11:18:01;14;;;9;;
75342;SDS011;63936;51.006;13.764;2024-01-06T11:20:04;15;;;9;;
75342;SDS011;63936;51.006;13.764;2024-01-06T11:22:17;14;;;8;;
75342;SDS011;63936;51.006;13.764;2024-01-06T11:24:09;14;;;8;;
75342;SDS011;63936;51.006;13.764;2024-01-06T11:26:01;14;;;8;;
75342;SDS011;63936;51.006;13.764;2024-01-06T11:28:01;14;;;8;;
75342;SDS011;63936;51.006;13.764;2024-01-06T11:30:02;15;;;9;;
75342;SDS011;63936;51.006;13.764;2024-01-06T11:32:17;16;;;9;;
75342;SDS011;63936;51.006;13.764;2024-01-06T11:34:11;18;;;9;;
75342;SDS011;63936;51.006;13.764;2024-01-06T11:36:01;18;;;10;;
75342;SDS011;63936;51.006;13.764;2024-01-06T11:38:01;13;;;8;;
75342;SDS011;63936;51.006;13.764;2024-01-06T11:40:02;14;;;8;;
75342;SDS011;63936;51.006;13.764;2024-01-06T11:42:01;14;;;9;;
75342;SDS011;63936;51.006;13.764;2024-01-06T11:44:01;14;;;10;;
75342;SDS011;63936;51.006;13.764;2024-01-06T11:46:01;13;;;8;;
75342;SDS011;63936;51.006;13.764;2024-01-06T11:48:01;14;;;8;;
75342;SDS011;63936;51.006;13.764;2024-01-06T11:50:01;16;;;8;;
75342;SDS011;63936;51.006;13.764;2024-01-06T11:52:01;16;;;8;;
75342;SDS011;63936;51.006;13.764;2024-01-06T11:54:01;15;;;8;;
75342;SDS011;63936;51.006;13.764;2024-01-06T11:56:01;14;;;8;;
75342;SDS011;63936;51.006;13.764;2024-01-06T11:58:01;17;;;8;;
75342;SDS011;63936;51.006;13.764;2024-01-06T12:00:01;16;;;8;;
75342;SDS011;63936;51.006;13.764;2024-01-06T12:02:01;15;;;7;;
75342;SDS011;63936;51.006;13.764;2024-01-06T12:04:01;15;;;8;;
75342;SDS011;63936;51.006;13.764;2024-01-06T12:06:01;17;;;9;;
75342;SDS011;63936;51.006;13.764;2024-01-06T12:08:02;17;;;9;;
75342;SDS011;63936;51.006;13.764;2024-01-06T12:10:03;15;;;8;;
75342;SDS011;63936;51.006;13.764;2024-01-06T12:12:01;16;;;8;;
75342;SDS011;63936;51.006;13.764;2024-01-06T12:14:01;15;;;8;;
75342;SDS011;63936;51.006;13.764;2024-01-06T12:16:01;15;;;8;;
75342;SDS011;63936;51.006;13.764;2024-01-06T12:18:02;20;;;10;;
75342;SDS011;63936;51.006;13.764;2024-01-06T12:20:01;21;;;10;;
75342;SDS011;63936;51.006;13.764;2024-01-06T12:22:01;15;;;9;;
75342;SDS011;63936;51.006;13.764;2024-01-06T12:24:12;17;;;9;;
75342;SDS011;63936;51.006;13.764;2024-01-06T12:26:01;15;;;8;;
75342;SDS011;63936;51.006;13.764;2024-01-06T12:28:01;17;;;10;;
75342;SDS011;63936;51.006;13.764;2024-01-06T12:30:02;17;;;9;;
75342;SDS011;63936;51.006;13.764;2024-01-06T12:32:02;19;;;9;;
75342;SDS011;63936;51.006;13.764;2024-01-06T12:34:01;15;;;8;;
75342;SDS011;63936;51.006;13.764;2024-01-06T12:36:02;16;;;9;;
75342;SDS011;63936;51.006;13.764;2024-01-06T12:38:02;19;;;10;;
75342;SDS011;63936;51.006;13.764;2024-01-06T12:40:01;19;;;11;;
75342;SDS011;63936;51.006;13.764;2024-01-06T12:42:01;17;;;9;;
75342;SDS011;63936;51.006;13.764;2024-01-06T12:44:01;18;;;9;;
75342;SDS011;63936;51.006;13.764;2024-01-06T12:46:01;21;;;10;;